sensor_id;sensor_type;location;lat;lon;timestamp;pressure;altitude;pressure_sealevel;temperature;humidity
70248;BME280;57641;51.416;5.506;2023-02-25T00:00:07;100933.06;;;9.48;56.01
70248;BME280;57641;51.416;5.506;2023-02-25T00:02:48;100937.16;;;9.43;57.03
70248;BME280;57641;51.416;5.506;2023-02-25T00:05:16;100941.97;;;9.20;57.59
70248;BME280;57641;51.416;5.506;2023-02-25T00:07:42;100937.72;;;9.37;57.13
70248;BME280;57641;51.416;5.506;2023-02-25T00:10:12;100940.97;;;9.30;57.02
70248;BME280;57641;51.416;5.506;2023-02-25T00:12:40;100939.59;;;9.17;57.40
70248;BME280;57641;51.416;5.506;2023-02-25T00:15:06;100939.56;;;9.26;56.79
70248;BME280;57641;51.416;5.506;2023-02-25T00:17:32;100941.09;;;9.39;56.20
70248;BME280;57641;51.416;5.506;2023-02-25T00:19:58;100929.91;;;9.25;55.73
70248;BME280;57641;51.416;5.506;2023-02-25T00:22:25;100939.44;;;9.18;55.31
70248;BME280;57641;51.416;5.506;2023-02-25T00:24:56;100926.72;;;8.83;55.17
70248;BME280;57641;51.416;5.506;2023-02-25T00:27:23;100929.53;;;9.01;55.44
70248;BME280;57641;51.416;5.506;2023-02-25T00:29:53;100925.88;;;9.02;55.94
70248;BME280;57641;51.416;5.506;2023-02-25T00:32:20;100927.25;;;9.16;55.12
70248;BME280;57641;51.416;5.506;2023-02-25T00:34:46;100921.97;;;9.06;55.00
70248;BME280;57641;51.416;5.506;2023-02-25T00:37:13;100919.16;;;9.08;54.76
70248;BME280;57641;51.416;5.506;2023-02-25T00:39:39;100929.50;;;9.11;54.51
70248;BME280;57641;51.416;5.506;2023-02-25T00:42:13;100933.84;;;9.12;54.95
70248;BME280;57641;51.416;5.506;2023-02-25T00:44:43;100921.94;;;9.16;54.38
70248;BME280;57641;51.416;5.506;2023-02-25T00:47:10;100925.75;;;9.13;54.22
70248;BME280;57641;51.416;5.506;2023-02-25T00:49:36;100927.97;;;9.18;54.62
70248;BME280;57641;51.416;5.506;2023-02-25T00:52:02;100920.97;;;9.07;54.26
70248;BME280;57641;51.416;5.506;2023-02-25T00:54:28;100919.84;;;9.10;54.41
70248;BME280;57641;51.416;5.506;2023-02-25T00:56:54;100925.19;;;9.00;54.38
70248;BME280;57641;51.416;5.506;2023-02-25T00:59:26;100926.88;;;9.01;55.23
70248;BME280;57641;51.416;5.506;2023-02-25T01:01:51;100930.78;;;9.07;54.53
70248;BME280;57641;51.416;5.506;2023-02-25T01:04:17;100921.81;;;9.08;55.11
70248;BME280;57641;51.416;5.506;2023-02-25T01:06:43;100923.22;;;9.02;55.21
70248;BME280;57641;51.416;5.506;2023-02-25T01:09:09;100926.31;;;9.07;54.79
70248;BME280;57641;51.416;5.506;2023-02-25T01:11:41;100931.50;;;9.09;55.30
70248;BME280;57641;51.416;5.506;2023-02-25T01:14:12;100930.91;;;9.05;54.69
70248;BME280;57641;51.416;5.506;2023-02-25T01:16:38;100936.53;;;9.02;55.61
70248;BME280;57641;51.416;5.506;2023-02-25T01:19:08;100930.78;;;8.97;55.56
70248;BME280;57641;51.416;5.506;2023-02-25T01:21:38;100930.38;;;8.92;55.64
70248;BME280;57641;51.416;5.506;2023-02-25T01:24:15;100932.06;;;8.93;56.03
70248;BME280;57641;51.416;5.506;2023-02-25T01:26:43;100933.16;;;8.90;55.84
70248;BME280;57641;51.416;5.506;2023-02-25T01:29:16;100934.69;;;8.83;56.46
70248;BME280;57641;51.416;5.506;2023-02-25T01:31:42;100934.84;;;8.72;55.85
70248;BME280;57641;51.416;5.506;2023-02-25T01:34:12;100933.59;;;8.76;57.04
70248;BME280;57641;51.416;5.506;2023-02-25T01:36:39;100937.66;;;8.80;56.54
70248;BME280;57641;51.416;5.506;2023-02-25T01:39:05;100946.34;;;8.82;56.03
70248;BME280;57641;51.416;5.506;2023-02-25T01:41:33;100941.41;;;8.68;56.92
70248;BME280;57641;51.416;5.506;2023-02-25T01:44:12;100945.50;;;8.82;56.77
70248;BME280;57641;51.416;5.506;2023-02-25T01:46:41;100945.19;;;8.75;56.40
70248;BME280;57641;51.416;5.506;2023-02-25T01:52:12;100950.34;;;8.48;57.27
70248;BME280;57641;51.416;5.506;2023-02-25T01:54:41;100942.13;;;8.61;57.40
70248;BME280;57641;51.416;5.506;2023-02-25T01:57:11;100942.53;;;8.66;56.94
70248;BME280;57641;51.416;5.506;2023-02-25T01:59:39;100951.19;;;8.48;56.72
70248;BME280;57641;51.416;5.506;2023-02-25T02:02:11;100949.38;;;8.59;57.67
70248;BME280;57641;51.416;5.506;2023-02-25T02:04:38;100946.47;;;8.71;57.54
70248;BME280;57641;51.416;5.506;2023-02-25T02:07:09;100955.53;;;8.78;56.91
70248;BME280;57641;51.416;5.506;2023-02-25T02:09:36;100953.19;;;8.75;56.87
70248;BME280;57641;51.416;5.506;2023-02-25T02:12:06;100947.44;;;8.80;57.09
70248;BME280;57641;51.416;5.506;2023-02-25T02:14:37;100946.72;;;8.78;56.47
70248;BME280;57641;51.416;5.506;2023-02-25T02:17:17;100955.00;;;8.84;56.50
70248;BME280;57641;51.416;5.506;2023-02-25T02:22:53;100955.97;;;8.74;56.72
70248;BME280;57641;51.416;5.506;2023-02-25T02:25:47;100955.00;;;8.65;56.39
70248;BME280;57641;51.416;5.506;2023-02-25T02:31:28;100961.94;;;8.57;56.50
70248;BME280;57641;51.416;5.506;2023-02-25T02:42:11;100956.19;;;8.32;57.60
70248;BME280;57641;51.416;5.506;2023-02-25T02:44:57;100951.59;;;8.34;57.62
70248;BME280;57641;51.416;5.506;2023-02-25T02:47:35;100950.88;;;8.32;57.19
70248;BME280;57641;51.416;5.506;2023-02-25T02:52:37;100953.25;;;8.35;57.63
70248;BME280;57641;51.416;5.506;2023-02-25T02:55:14;100954.78;;;8.38;57.72
70248;BME280;57641;51.416;5.506;2023-02-25T02:57:47;100950.16;;;8.30;57.62
70248;BME280;57641;51.416;5.506;2023-02-25T03:00:15;100949.44;;;8.28;58.31
70248;BME280;57641;51.416;5.506;2023-02-25T03:02:55;100959.63;;;8.23;57.34
70248;BME280;57641;51.416;5.506;2023-02-25T03:05:27;100955.00;;;8.25;58.03
70248;BME280;57641;51.416;5.506;2023-02-25T03:08:07;100960.94;;;8.38;58.21
70248;BME280;57641;51.416;5.506;2023-02-25T03:10:34;100959.31;;;8.17;58.18
70248;BME280;57641;51.416;5.506;2023-02-25T03:13:03;100964.03;;;8.34;57.80
70248;BME280;57641;51.416;5.506;2023-02-25T03:15:30;100960.66;;;8.32;57.74
70248;BME280;57641;51.416;5.506;2023-02-25T03:18:02;100977.03;;;8.46;57.84
70248;BME280;57641;51.416;5.506;2023-02-25T03:20:41;100964.03;;;8.34;58.19
70248;BME280;57641;51.416;5.506;2023-02-25T03:23:14;100966.19;;;8.19;58.25
70248;BME280;57641;51.416;5.506;2023-02-25T03:25:46;100970.69;;;8.28;60.25
70248;BME280;57641;51.416;5.506;2023-02-25T03:30:54;100960.53;;;8.43;59.23
70248;BME280;57641;51.416;5.506;2023-02-25T03:33:31;100958.44;;;8.37;59.57
70248;BME280;57641;51.416;5.506;2023-02-25T03:36:00;100959.09;;;8.29;59.83
70248;BME280;57641;51.416;5.506;2023-02-25T03:38:30;100959.81;;;8.31;59.39
70248;BME280;57641;51.416;5.506;2023-02-25T03:41:00;100959.69;;;8.42;59.25
70248;BME280;57641;51.416;5.506;2023-02-25T03:43:31;100966.41;;;8.46;59.63
70248;BME280;57641;51.416;5.506;2023-02-25T03:45:58;100972.44;;;8.48;59.00
70248;BME280;57641;51.416;5.506;2023-02-25T03:48:25;100960.72;;;8.51;59.13
70248;BME280;57641;51.416;5.506;2023-02-25T03:51:02;100970.94;;;8.56;59.05
70248;BME280;57641;51.416;5.506;2023-02-25T03:53:32;100965.19;;;8.51;59.11
70248;BME280;57641;51.416;5.506;2023-02-25T03:56:03;100975.41;;;8.55;58.05
70248;BME280;57641;51.416;5.506;2023-02-25T03:58:34;100964.75;;;8.45;58.13
70248;BME280;57641;51.416;5.506;2023-02-25T04:01:03;100968.78;;;8.40;58.85
70248;BME280;57641;51.416;5.506;2023-02-25T04:03:31;100961.78;;;8.39;58.68
70248;BME280;57641;51.416;5.506;2023-02-25T04:06:01;100967.38;;;8.36;58.32
70248;BME280;57641;51.416;5.506;2023-02-25T04:08:27;100972.63;;;8.26;58.62
70248;BME280;57641;51.416;5.506;2023-02-25T04:10:53;100962.72;;;8.28;58.88
70248;BME280;57641;51.416;5.506;2023-02-25T04:13:18;100968.03;;;8.28;58.71
70248;BME280;57641;51.416;5.506;2023-02-25T04:15:46;100968.28;;;8.25;59.27
70248;BME280;57641;51.416;5.506;2023-02-25T04:18:13;100975.50;;;8.34;59.14
70248;BME280;57641;51.416;5.506;2023-02-25T04:20:41;100967.94;;;8.39;58.40
70248;BME280;57641;51.416;5.506;2023-02-25T04:23:11;100976.34;;;8.35;58.52
70248;BME280;57641;51.416;5.506;2023-02-25T04:25:37;100978.72;;;8.38;58.22
70248;BME280;57641;51.416;5.506;2023-02-25T04:28:06;100983.59;;;8.42;58.40
70248;BME280;57641;51.416;5.506;2023-02-25T04:30:32;100977.88;;;8.37;58.15
70248;BME280;57641;51.416;5.506;2023-02-25T04:32:57;100979.56;;;8.38;58.45
70248;BME280;57641;51.416;5.506;2023-02-25T04:35:23;100978.22;;;8.23;57.95
70248;BME280;57641;51.416;5.506;2023-02-25T04:37:48;100981.06;;;8.41;58.07
70248;BME280;57641;51.416;5.506;2023-02-25T04:40:18;100979.00;;;8.35;58.65
70248;BME280;57641;51.416;5.506;2023-02-25T04:42:47;100981.50;;;8.36;59.09
70248;BME280;57641;51.416;5.506;2023-02-25T04:45:14;100977.63;;;8.20;58.98
70248;BME280;57641;51.416;5.506;2023-02-25T04:47:40;100988.72;;;7.94;60.10
70248;BME280;57641;51.416;5.506;2023-02-25T04:50:09;100988.81;;;8.14;58.92
70248;BME280;57641;51.416;5.506;2023-02-25T04:52:35;100993.69;;;8.09;58.75
70248;BME280;57641;51.416;5.506;2023-02-25T04:55:01;100993.19;;;8.24;59.51
70248;BME280;57641;51.416;5.506;2023-02-25T04:57:27;100994.56;;;8.19;58.85
70248;BME280;57641;51.416;5.506;2023-02-25T04:59:53;100991.56;;;8.33;58.77
70248;BME280;57641;51.416;5.506;2023-02-25T05:02:19;100984.88;;;8.38;58.55
70248;BME280;57641;51.416;5.506;2023-02-25T05:04:45;100986.25;;;8.42;58.21
70248;BME280;57641;51.416;5.506;2023-02-25T05:07:10;100993.97;;;8.45;58.24
70248;BME280;57641;51.416;5.506;2023-02-25T05:09:36;100994.53;;;8.39;57.81
70248;BME280;57641;51.416;5.506;2023-02-25T05:12:02;100988.91;;;8.33;57.72
70248;BME280;57641;51.416;5.506;2023-02-25T05:14:27;100992.28;;;8.44;57.52
70248;BME280;57641;51.416;5.506;2023-02-25T05:16:53;100990.97;;;8.29;57.85
70248;BME280;57641;51.416;5.506;2023-02-25T05:19:21;100993.19;;;8.24;58.23
70248;BME280;57641;51.416;5.506;2023-02-25T05:21:52;100987.94;;;8.34;58.25
70248;BME280;57641;51.416;5.506;2023-02-25T05:24:18;100989.19;;;8.30;58.54
70248;BME280;57641;51.416;5.506;2023-02-25T05:26:44;100985.13;;;8.35;58.21
70248;BME280;57641;51.416;5.506;2023-02-25T05:29:10;100987.34;;;8.30;58.09
70248;BME280;57641;51.416;5.506;2023-02-25T05:31:36;100988.66;;;8.45;57.73
70248;BME280;57641;51.416;5.506;2023-02-25T05:34:04;100992.28;;;8.35;58.04
70248;BME280;57641;51.416;5.506;2023-02-25T05:36:30;100995.19;;;8.32;57.55
70248;BME280;57641;51.416;5.506;2023-02-25T05:38:57;100987.66;;;8.37;57.85
70248;BME280;57641;51.416;5.506;2023-02-25T05:41:24;100997.59;;;8.35;57.57
70248;BME280;57641;51.416;5.506;2023-02-25T05:43:53;100989.34;;;8.47;57.62
70248;BME280;57641;51.416;5.506;2023-02-25T05:46:19;100989.34;;;8.38;58.30
70248;BME280;57641;51.416;5.506;2023-02-25T05:48:47;100988.66;;;8.45;57.45
70248;BME280;57641;51.416;5.506;2023-02-25T05:51:17;100991.44;;;8.44;57.70
70248;BME280;57641;51.416;5.506;2023-02-25T05:53:44;100993.56;;;8.40;57.95
70248;BME280;57641;51.416;5.506;2023-02-25T05:56:12;100999.00;;;8.39;57.57
70248;BME280;57641;51.416;5.506;2023-02-25T05:58:39;100992.41;;;8.43;57.15
70248;BME280;57641;51.416;5.506;2023-02-25T06:01:07;100998.88;;;8.40;57.34
70248;BME280;57641;51.416;5.506;2023-02-25T06:03:36;100996.34;;;8.39;57.20
70248;BME280;57641;51.416;5.506;2023-02-25T06:06:03;100997.44;;;8.36;57.04
70248;BME280;57641;51.416;5.506;2023-02-25T06:08:29;101009.88;;;8.36;56.74
70248;BME280;57641;51.416;5.506;2023-02-25T06:10:55;101017.84;;;8.36;57.43
70248;BME280;57641;51.416;5.506;2023-02-25T06:13:22;101026.09;;;8.33;56.36
70248;BME280;57641;51.416;5.506;2023-02-25T06:15:47;101016.94;;;8.26;56.69
70248;BME280;57641;51.416;5.506;2023-02-25T06:18:13;101016.75;;;8.38;56.60
70248;BME280;57641;51.416;5.506;2023-02-25T06:20:38;101014.66;;;8.42;56.27
70248;BME280;57641;51.416;5.506;2023-02-25T06:23:04;101026.41;;;8.39;56.27
70248;BME280;57641;51.416;5.506;2023-02-25T06:25:30;101026.84;;;8.44;56.28
70248;BME280;57641;51.416;5.506;2023-02-25T06:27:57;101025.31;;;8.21;55.86
70248;BME280;57641;51.416;5.506;2023-02-25T06:30:23;101017.66;;;8.28;56.55
70248;BME280;57641;51.416;5.506;2023-02-25T06:32:49;101022.53;;;8.23;56.03
70248;BME280;57641;51.416;5.506;2023-02-25T06:35:14;101023.72;;;8.30;55.76
70248;BME280;57641;51.416;5.506;2023-02-25T06:37:40;101025.75;;;8.26;56.18
70248;BME280;57641;51.416;5.506;2023-02-25T06:40:06;101030.28;;;8.35;56.13
70248;BME280;57641;51.416;5.506;2023-02-25T06:42:37;101041.06;;;8.34;56.15
70248;BME280;57641;51.416;5.506;2023-02-25T06:45:04;101043.22;;;8.50;55.64
70248;BME280;57641;51.416;5.506;2023-02-25T06:47:29;101039.72;;;8.49;55.83
70248;BME280;57641;51.416;5.506;2023-02-25T06:49:55;101040.56;;;8.50;55.88
70248;BME280;57641;51.416;5.506;2023-02-25T06:52:22;101036.63;;;8.44;55.56
70248;BME280;57641;51.416;5.506;2023-02-25T06:54:49;101044.59;;;8.44;55.87
70248;BME280;57641;51.416;5.506;2023-02-25T06:57:14;101049.94;;;8.54;55.95
70248;BME280;57641;51.416;5.506;2023-02-25T06:59:40;101034.53;;;8.57;55.95
70248;BME280;57641;51.416;5.506;2023-02-25T07:02:07;101051.63;;;8.55;56.14
70248;BME280;57641;51.416;5.506;2023-02-25T07:04:34;101056.06;;;8.44;55.65
70248;BME280;57641;51.416;5.506;2023-02-25T07:06:59;101054.84;;;8.58;56.01
70248;BME280;57641;51.416;5.506;2023-02-25T07:09:25;101064.59;;;8.48;56.02
70248;BME280;57641;51.416;5.506;2023-02-25T07:11:50;101069.25;;;8.56;55.77
70248;BME280;57641;51.416;5.506;2023-02-25T07:14:16;101067.81;;;8.52;55.89
70248;BME280;57641;51.416;5.506;2023-02-25T07:16:41;101059.81;;;8.42;56.12
70248;BME280;57641;51.416;5.506;2023-02-25T07:19:07;101058.88;;;8.53;56.29
70248;BME280;57641;51.416;5.506;2023-02-25T07:21:33;101063.41;;;8.62;55.90
70248;BME280;57641;51.416;5.506;2023-02-25T07:23:58;101067.72;;;8.63;55.67
70248;BME280;57641;51.416;5.506;2023-02-25T07:26:24;101074.22;;;8.39;55.68
70248;BME280;57641;51.416;5.506;2023-02-25T07:28:57;101074.78;;;8.43;56.38
70248;BME280;57641;51.416;5.506;2023-02-25T07:31:25;101084.88;;;8.49;56.01
70248;BME280;57641;51.416;5.506;2023-02-25T07:33:53;101086.03;;;8.56;56.53
70248;BME280;57641;51.416;5.506;2023-02-25T07:36:18;101092.03;;;8.58;56.27
70248;BME280;57641;51.416;5.506;2023-02-25T07:38:45;101092.22;;;8.66;55.43
70248;BME280;57641;51.416;5.506;2023-02-25T07:41:16;101087.06;;;8.74;55.74
70248;BME280;57641;51.416;5.506;2023-02-25T07:43:42;101087.91;;;8.75;55.90
70248;BME280;57641;51.416;5.506;2023-02-25T07:46:09;101081.44;;;8.68;55.70
70248;BME280;57641;51.416;5.506;2023-02-25T07:48:34;101090.44;;;8.76;55.41
70248;BME280;57641;51.416;5.506;2023-02-25T07:51:09;101088.03;;;8.83;55.36
70248;BME280;57641;51.416;5.506;2023-02-25T07:53:35;101086.63;;;8.69;56.08
70248;BME280;57641;51.416;5.506;2023-02-25T07:56:01;101099.69;;;8.82;55.09
70248;BME280;57641;51.416;5.506;2023-02-25T07:58:27;101105.09;;;8.71;55.79
70248;BME280;57641;51.416;5.506;2023-02-25T08:00:53;101098.41;;;8.76;55.51
70248;BME280;57641;51.416;5.506;2023-02-25T08:03:19;101102.63;;;8.88;55.35
70248;BME280;57641;51.416;5.506;2023-02-25T08:05:49;101092.97;;;8.87;54.82
70248;BME280;57641;51.416;5.506;2023-02-25T08:08:16;101103.84;;;8.75;55.75
70248;BME280;57641;51.416;5.506;2023-02-25T08:10:41;101106.97;;;8.89;55.08
70248;BME280;57641;51.416;5.506;2023-02-25T08:13:07;101114.81;;;8.91;55.91
70248;BME280;57641;51.416;5.506;2023-02-25T08:15:33;101118.31;;;8.92;54.84
70248;BME280;57641;51.416;5.506;2023-02-25T08:17:59;101117.78;;;9.07;55.44
70248;BME280;57641;51.416;5.506;2023-02-25T08:20:24;101121.00;;;9.11;55.32
70248;BME280;57641;51.416;5.506;2023-02-25T08:22:50;101118.09;;;9.14;54.98
70248;BME280;57641;51.416;5.506;2023-02-25T08:25:15;101112.22;;;9.20;54.70
70248;BME280;57641;51.416;5.506;2023-02-25T08:27:41;101122.88;;;9.29;54.89
70248;BME280;57641;51.416;5.506;2023-02-25T08:30:09;101116.69;;;9.19;54.54
70248;BME280;57641;51.416;5.506;2023-02-25T08:32:35;101121.72;;;9.13;54.76
70248;BME280;57641;51.416;5.506;2023-02-25T08:35:01;101121.00;;;9.11;54.91
70248;BME280;57641;51.416;5.506;2023-02-25T08:37:30;101121.16;;;9.09;55.61
70248;BME280;57641;51.416;5.506;2023-02-25T08:39:57;101125.13;;;9.24;55.02
70248;BME280;57641;51.416;5.506;2023-02-25T08:42:23;101124.69;;;9.29;54.68
70248;BME280;57641;51.416;5.506;2023-02-25T08:44:49;101134.38;;;9.40;54.25
70248;BME280;57641;51.416;5.506;2023-02-25T08:47:15;101133.41;;;9.50;54.24
70248;BME280;57641;51.416;5.506;2023-02-25T08:49:42;101125.53;;;9.49;52.74
70248;BME280;57641;51.416;5.506;2023-02-25T08:52:08;101137.44;;;9.45;52.98
70248;BME280;57641;51.416;5.506;2023-02-25T08:54:39;101138.28;;;9.45;53.58
70248;BME280;57641;51.416;5.506;2023-02-25T08:57:05;101139.13;;;9.46;53.75
70248;BME280;57641;51.416;5.506;2023-02-25T08:59:31;101145.44;;;9.64;54.18
70248;BME280;57641;51.416;5.506;2023-02-25T09:02:05;101138.72;;;9.69;53.28
70248;BME280;57641;51.416;5.506;2023-02-25T09:04:32;101139.72;;;9.78;53.08
70248;BME280;57641;51.416;5.506;2023-02-25T09:06:59;101138.44;;;9.82;52.02
70248;BME280;57641;51.416;5.506;2023-02-25T09:09:26;101144.47;;;9.65;52.96
70248;BME280;57641;51.416;5.506;2023-02-25T09:11:53;101146.28;;;9.64;53.57
70248;BME280;57641;51.416;5.506;2023-02-25T09:14:19;101146.13;;;9.75;53.14
70248;BME280;57641;51.416;5.506;2023-02-25T09:16:45;101141.22;;;9.81;52.25
70248;BME280;57641;51.416;5.506;2023-02-25T09:19:11;101145.69;;;9.90;52.64
70248;BME280;57641;51.416;5.506;2023-02-25T09:21:40;101147.69;;;9.88;52.60
70248;BME280;57641;51.416;5.506;2023-02-25T09:24:07;101137.69;;;9.99;52.48
70248;BME280;57641;51.416;5.506;2023-02-25T09:26:33;101145.72;;;9.80;51.88
70248;BME280;57641;51.416;5.506;2023-02-25T09:29:03;101152.03;;;9.98;52.81
70248;BME280;57641;51.416;5.506;2023-02-25T09:31:29;101158.19;;;10.08;53.17
70248;BME280;57641;51.416;5.506;2023-02-25T09:33:55;101156.63;;;10.25;52.08
70248;BME280;57641;51.416;5.506;2023-02-25T09:36:20;101168.66;;;10.10;51.46
70248;BME280;57641;51.416;5.506;2023-02-25T09:38:47;101173.56;;;10.34;52.28
70248;BME280;57641;51.416;5.506;2023-02-25T09:44:20;101175.84;;;10.29;52.28
70248;BME280;57641;51.416;5.506;2023-02-25T09:46:54;101184.91;;;10.45;51.54
70248;BME280;57641;51.416;5.506;2023-02-25T09:49:37;101175.06;;;10.55;50.96
70248;BME280;57641;51.416;5.506;2023-02-25T09:52:12;101182.94;;;10.47;50.96
70248;BME280;57641;51.416;5.506;2023-02-25T09:54:48;101179.28;;;10.48;50.59
70248;BME280;57641;51.416;5.506;2023-02-25T09:57:17;101178.84;;;10.53;50.88
70248;BME280;57641;51.416;5.506;2023-02-25T09:59:48;101182.06;;;10.66;51.40
70248;BME280;57641;51.416;5.506;2023-02-25T10:02:36;101187.47;;;10.74;51.60
70248;BME280;57641;51.416;5.506;2023-02-25T10:07:52;101192.94;;;10.82;51.25
70248;BME280;57641;51.416;5.506;2023-02-25T10:10:29;101192.19;;;10.90;50.83
70248;BME280;57641;51.416;5.506;2023-02-25T10:13:22;101183.88;;;10.66;50.69
70248;BME280;57641;51.416;5.506;2023-02-25T10:16:04;101179.88;;;10.89;50.84
70248;BME280;57641;51.416;5.506;2023-02-25T10:26:23;101205.09;;;10.94;49.34
70248;BME280;57641;51.416;5.506;2023-02-25T10:28:59;101192.34;;;11.16;49.54
70248;BME280;57641;51.416;5.506;2023-02-25T10:31:29;101190.56;;;11.07;49.57
70248;BME280;57641;51.416;5.506;2023-02-25T10:33:56;101195.72;;;11.18;48.09
70248;BME280;57641;51.416;5.506;2023-02-25T10:36:42;101207.97;;;11.11;49.31
70248;BME280;57641;51.416;5.506;2023-02-25T10:39:09;101206.97;;;11.12;48.82
70248;BME280;57641;51.416;5.506;2023-02-25T10:41:35;101221.09;;;10.94;48.71
70248;BME280;57641;51.416;5.506;2023-02-25T10:44:01;101233.16;;;10.98;49.03
70248;BME280;57641;51.416;5.506;2023-02-25T10:49:20;101227.88;;;10.79;49.96
70248;BME280;57641;51.416;5.506;2023-02-25T10:52:14;101227.03;;;10.79;48.60
70248;BME280;57641;51.416;5.506;2023-02-25T10:54:50;101231.16;;;10.73;49.10
70248;BME280;57641;51.416;5.506;2023-02-25T11:00:06;101225.97;;;10.72;48.82
70248;BME280;57641;51.416;5.506;2023-02-25T11:02:42;101221.13;;;10.85;49.29
70248;BME280;57641;51.416;5.506;2023-02-25T11:05:32;101222.94;;;10.94;48.84
70248;BME280;57641;51.416;5.506;2023-02-25T11:08:01;101231.19;;;11.00;48.74
70248;BME280;57641;51.416;5.506;2023-02-25T11:10:26;101227.97;;;10.97;48.33
70248;BME280;57641;51.416;5.506;2023-02-25T11:12:56;101240.81;;;11.11;48.53
70248;BME280;57641;51.416;5.506;2023-02-25T11:15:36;101245.00;;;11.23;47.64
70248;BME280;57641;51.416;5.506;2023-02-25T11:20:31;101249.78;;;11.20;47.30
70248;BME280;57641;51.416;5.506;2023-02-25T11:22:58;101244.75;;;11.44;47.58
70248;BME280;57641;51.416;5.506;2023-02-25T11:25:40;101249.88;;;11.55;46.73
70248;BME280;57641;51.416;5.506;2023-02-25T11:28:32;101238.66;;;11.52;46.94
70248;BME280;57641;51.416;5.506;2023-02-25T11:33:43;101245.84;;;11.51;45.80
70248;BME280;57641;51.416;5.506;2023-02-25T11:36:10;101244.69;;;11.54;45.35
70248;BME280;57641;51.416;5.506;2023-02-25T11:38:40;101260.56;;;11.55;45.51
70248;BME280;57641;51.416;5.506;2023-02-25T11:41:20;101264.25;;;11.72;45.69
70248;BME280;57641;51.416;5.506;2023-02-25T11:43:47;101260.63;;;11.73;45.00
70248;BME280;57641;51.416;5.506;2023-02-25T11:46:16;101257.38;;;11.79;43.56
70248;BME280;57641;51.416;5.506;2023-02-25T11:57:04;101252.63;;;11.91;43.72
70248;BME280;57641;51.416;5.506;2023-02-25T12:00:01;101256.16;;;12.09;43.72
70248;BME280;57641;51.416;5.506;2023-02-25T12:23:24;101268.97;;;11.88;42.85
70248;BME280;57641;51.416;5.506;2023-02-25T12:26:17;101287.94;;;11.84;43.95
70248;BME280;57641;51.416;5.506;2023-02-25T12:28:58;101286.56;;;11.53;45.53
70248;BME280;57641;51.416;5.506;2023-02-25T12:31:46;101297.59;;;11.40;46.16
70248;BME280;57641;51.416;5.506;2023-02-25T12:40:35;101284.59;;;11.28;43.90
70248;BME280;57641;51.416;5.506;2023-02-25T12:43:26;101286.06;;;11.13;43.27
70248;BME280;57641;51.416;5.506;2023-02-25T12:54:33;101277.03;;;11.23;42.00
70248;BME280;57641;51.416;5.506;2023-02-25T13:00:45;101275.69;;;11.64;37.04
70248;BME280;57641;51.416;5.506;2023-02-25T13:11:26;101269.06;;;11.68;37.39
70248;BME280;57641;51.416;5.506;2023-02-25T13:14:14;101280.88;;;11.66;38.09
70248;BME280;57641;51.416;5.506;2023-02-25T13:19:58;101285.72;;;11.53;38.44
70248;BME280;57641;51.416;5.506;2023-02-25T13:33:58;101282.84;;;11.64;38.89
70248;BME280;57641;51.416;5.506;2023-02-25T13:48:06;101298.25;;;11.52;39.79
70248;BME280;57641;51.416;5.506;2023-02-25T14:02:06;101304.47;;;11.70;40.04
70248;BME280;57641;51.416;5.506;2023-02-25T14:07:50;101300.69;;;11.73;39.80
70248;BME280;57641;51.416;5.506;2023-02-25T14:10:32;101309.94;;;11.78;38.47
70248;BME280;57641;51.416;5.506;2023-02-25T14:13:12;101305.31;;;11.98;39.13
70248;BME280;57641;51.416;5.506;2023-02-25T14:19:17;101312.47;;;11.70;39.73
70248;BME280;57641;51.416;5.506;2023-02-25T14:24:51;101324.06;;;11.61;36.22
70248;BME280;57641;51.416;5.506;2023-02-25T14:27:52;101324.75;;;11.63;34.86
70248;BME280;57641;51.416;5.506;2023-02-25T14:30:40;101327.09;;;11.76;34.89
70248;BME280;57641;51.416;5.506;2023-02-25T14:36:14;101333.84;;;11.70;32.40
70248;BME280;57641;51.416;5.506;2023-02-25T14:39:04;101343.28;;;11.74;31.45
70248;BME280;57641;51.416;5.506;2023-02-25T14:42:07;101346.97;;;11.73;31.28
70248;BME280;57641;51.416;5.506;2023-02-25T14:45:36;101346.13;;;11.91;31.41
70248;BME280;57641;51.416;5.506;2023-02-25T14:47:58;101352.38;;;11.81;30.69
70248;BME280;57641;51.416;5.506;2023-02-25T14:50:31;101348.53;;;11.94;32.54
70248;BME280;57641;51.416;5.506;2023-02-25T15:09:22;101374.59;;;12.09;32.72
70248;BME280;57641;51.416;5.506;2023-02-25T15:20:34;101385.63;;;11.97;32.91
70248;BME280;57641;51.416;5.506;2023-02-25T15:23:09;101392.00;;;12.13;32.98
70248;BME280;57641;51.416;5.506;2023-02-25T15:25:46;101390.69;;;12.17;32.69
70248;BME280;57641;51.416;5.506;2023-02-25T15:33:35;101394.75;;;12.21;32.50
70248;BME280;57641;51.416;5.506;2023-02-25T15:36:26;101400.81;;;12.23;31.62
70248;BME280;57641;51.416;5.506;2023-02-25T15:38:56;101410.66;;;12.23;31.75
70248;BME280;57641;51.416;5.506;2023-02-25T15:43:56;101421.06;;;12.26;31.03
70248;BME280;57641;51.416;5.506;2023-02-25T15:49:30;101426.47;;;12.34;30.89
70248;BME280;57641;51.416;5.506;2023-02-25T15:51:59;101423.03;;;12.24;30.85
70248;BME280;57641;51.416;5.506;2023-02-25T15:59:53;101429.75;;;12.28;30.88
70248;BME280;57641;51.416;5.506;2023-02-25T16:05:18;101442.44;;;11.99;30.51
70248;BME280;57641;51.416;5.506;2023-02-25T16:07:49;101439.19;;;12.05;31.56
70248;BME280;57641;51.416;5.506;2023-02-25T16:10:46;101442.34;;;12.18;31.81
70248;BME280;57641;51.416;5.506;2023-02-25T16:13:16;101441.88;;;12.22;30.94
70248;BME280;57641;51.416;5.506;2023-02-25T16:15:48;101454.06;;;12.35;30.85
70248;BME280;57641;51.416;5.506;2023-02-25T16:18:27;101461.34;;;12.42;30.17
70248;BME280;57641;51.416;5.506;2023-02-25T16:21:03;101470.56;;;12.48;30.17
70248;BME280;57641;51.416;5.506;2023-02-25T16:23:38;101459.84;;;12.57;29.68
70248;BME280;57641;51.416;5.506;2023-02-25T16:31:54;101495.03;;;11.98;29.96
70248;BME280;57641;51.416;5.506;2023-02-25T16:34:41;101492.47;;;11.79;29.13
70248;BME280;57641;51.416;5.506;2023-02-25T16:39:46;101497.22;;;11.66;30.55